Time;durP1;ratioP1;P1;durP2;ratioP2;P2;SDS_P1;SDS_P2;PMS_P1;PMS_P2;Temp;Humidity;BMP_temperature;BMP_pressure;BME280_temperature;BME280_humidity;BME280_pressure;Samples;Min_cycle;Max_cycle;Signal;HPM_P1;HPM_P2
2022/05/16 00:00:30;;;;;;;6.13;3.17;;;;;;;;;;4994353;28;20042;-79
2022/05/16 00:02:59;;;;;;;11.88;3.30;;;;;;;16.64;63.16;68617.66;5009106;28;20049;-79
2022/05/16 00:05:24;;;;;;;;;;;;;;;16.61;63.22;68620.16;4998508;28;20053;-79
2022/05/16 00:07:50;;;;;;;11.32;3.17;;;;;;;16.48;63.79;68599.97;5018735;28;19913;-79
2022/05/16 00:10:16;;;;;;;11.75;3.30;;;;;;;16.39;64.21;68601.03;5010265;28;20042;-79
2022/05/16 00:12:42;;;;;;;8.55;3.60;;;;;;;16.40;64.22;68596.81;5001129;28;20102;-79
2022/05/16 00:15:10;;;;;;;12.50;3.50;;;;;;;16.35;64.58;68585.16;4995586;28;20157;-79
2022/05/16 00:17:35;;;;;;;14.60;3.75;;;;;;;16.27;64.79;68581.97;5008589;28;20038;-79
2022/05/16 00:20:01;;;;;;;8.88;3.47;;;;;;;;;;4998574;28;20196;-79
2022/05/16 00:22:27;;;;;;;12.85;3.58;;;;;;;;;;5010586;28;20056;-79
2022/05/16 00:24:53;;;;;;;12.93;3.42;;;;;;;16.18;64.83;68572.28;5018098;28;20053;-79
2022/05/16 00:27:19;;;;;;;11.23;3.38;;;;;;;16.13;65.52;68569.25;5008791;28;20049;-79
2022/05/16 00:29:44;;;;;;;9.20;3.60;;;;;;;16.11;65.54;68563.72;5004313;28;20092;-79
2022/05/16 00:32:10;;;;;;;10.57;3.47;;;;;;;16.04;65.67;68556.31;5007935;28;20057;-79
2022/05/16 00:34:36;;;;;;;6.60;3.20;;;;;;;;;;4989147;28;20050;-79
2022/05/16 00:37:02;;;;;;;9.25;3.20;;;;;;;15.91;66.55;68542.09;5005526;28;20046;-79
2022/05/16 00:39:28;;;;;;;12.10;3.55;;;;;;;;;;4991595;28;20093;-78
2022/05/16 00:41:53;;;;;;;10.88;3.55;;;;;;;;;;5008253;28;20057;-78
2022/05/16 00:44:20;;;;;;;8.20;3.58;;;;;;;15.71;67.96;68521.97;4988593;28;20073;-79
2022/05/16 00:46:47;;;;;;;8.38;3.08;;;;;;;;;;4996633;28;20057;-79
2022/05/16 00:49:16;;;;;;;8.77;3.38;;;;;;;;;;4993539;28;20510;-79
2022/05/16 00:51:48;;;;;;;10.18;4.63;;;;;;;15.56;68.06;68503.31;5006118;28;20057;-79
2022/05/16 00:54:21;;;;;;;8.70;3.40;;;;;;;15.56;68.15;68503.31;5005990;28;20662;-79
2022/05/16 00:56:51;;;;;;;9.68;3.60;;;;;;;15.47;68.33;68493.06;5014500;28;20050;-79
2022/05/16 00:59:19;;;;;;;11.10;3.70;;;;;;;15.39;69.17;68486.06;5007980;28;20057;-78
2022/05/16 01:07:14;;;;;;;13.88;3.58;;;;;;;15.14;69.96;68455.47;5010915;28;20104;-79
2022/05/16 01:09:40;;;;;;;10.48;3.58;;;;;;;;;;5010486;28;20567;-78
2022/05/16 01:12:06;;;;;;;9.02;3.67;;;;;;;15.09;70.45;68453.59;5003392;28;20125;-77
2022/05/16 01:14:45;;;;;;;8.90;4.15;;;;;;;15.02;70.91;68442.94;5003645;28;20574;-77
2022/05/16 01:17:12;;;;;;;11.38;3.90;;;;;;;15.05;70.70;68445.78;5008247;28;20049;-77
2022/05/16 01:19:37;;;;;;;11.43;3.92;;;;;;;15.05;70.58;68449.03;5008983;28;20057;-78
2022/05/16 01:22:14;;;;;;;8.10;3.80;;;;;;;14.99;70.83;68439.53;4993365;28;20047;-78
2022/05/16 01:24:40;;;;;;;9.32;3.90;;;;;;;14.95;70.93;68434.97;5004806;28;20038;-78
2022/05/16 01:27:06;;;;;;;10.93;3.50;;;;;;;14.94;70.58;68433.84;5009357;28;20038;-78
2022/05/16 01:29:31;;;;;;;9.52;4.00;;;;;;;14.97;70.91;68437.25;5008411;28;20052;-77
2022/05/16 01:31:56;;;;;;;8.50;3.60;;;;;;;14.95;70.96;68434.41;4989879;28;20042;-78
2022/05/16 01:34:21;;;;;;;10.52;3.88;;;;;;;;;;4990946;28;21177;-77
2022/05/16 01:36:47;;;;;;;10.50;3.73;;;;;;;14.95;70.65;68434.97;4999815;28;20058;-79
2022/05/16 01:39:12;;;;;;;12.82;4.30;;;;;;;14.88;71.00;68427.56;4997700;28;20304;-78
2022/05/16 01:41:38;;;;;;;11.05;4.30;;;;;;;14.81;71.95;68424.38;5011351;28;20110;-79
2022/05/16 01:44:03;;;;;;;12.05;3.58;;;;;;;14.78;71.56;68416.16;5017925;28;20048;-78
2022/05/16 01:46:33;;;;;;;10.23;3.85;;;;;;;14.74;71.72;68413.75;5013992;28;20034;-78
2022/05/16 01:48:58;;;;;;;9.18;4.43;;;;;;;14.75;71.82;68412.75;4998189;28;20139;-79
2022/05/16 01:51:24;;;;;;;9.48;3.53;;;;;;;14.65;72.34;68407.31;5008259;28;20135;-79
2022/05/16 01:53:49;;;;;;;12.63;4.47;;;;;;;14.63;72.30;68399.66;5007432;28;20100;-78
2022/05/16 01:56:15;;;;;;;13.98;4.22;;;;;;;;;;5005865;28;20041;-79
2022/05/16 01:58:41;;;;;;;9.73;4.35;;;;;;;14.60;72.75;68396.25;5009580;28;20467;-79
2022/05/16 02:01:07;;;;;;;10.68;4.20;;;;;;;14.62;72.42;68401.22;5006151;28;20037;-79
2022/05/16 02:03:36;;;;;;;10.73;4.07;;;;;;;14.56;72.96;68391.69;5010262;28;20038;-78
2022/05/16 02:06:01;;;;;;;8.60;4.13;;;;;;;14.54;73.29;68392.09;4993570;28;20049;-79
2022/05/16 02:08:27;;;;;;;10.98;3.92;;;;;;;14.45;73.58;68381.84;5006935;28;20410;-79
2022/05/16 02:10:52;;;;;;;9.93;4.20;;;;;;;14.47;73.67;68384.09;5009836;28;20056;-79
2022/05/16 02:13:18;;;;;;;11.77;4.40;;;;;;;14.49;73.44;68386.38;5012170;28;20038;-79
2022/05/16 02:15:45;;;;;;;12.27;4.53;;;;;;;14.45;73.79;68379.16;5002099;28;20437;-78
2022/05/16 02:18:11;;;;;;;10.20;4.55;;;;;;;14.40;73.78;68374.03;4996034;28;20054;-78
2022/05/16 02:20:37;;;;;;;8.75;4.20;;;;;;;14.36;73.99;68369.47;4994361;28;20197;-78
2022/05/16 02:25:50;;;;;;;10.43;4.30;;;;;;;14.39;73.87;68372.34;4992146;28;20531;-79
2022/05/16 02:28:18;;;;;;;11.05;4.40;;;;;;;14.33;74.19;68366.06;5004606;28;20120;-79
2022/05/16 02:30:45;;;;;;;9.80;4.97;;;;;;;14.30;74.48;68362.66;5009988;28;20129;-79
2022/05/16 02:33:13;;;;;;;10.27;4.20;;;;;;;14.26;74.59;68362.88;5008723;28;20041;-79
2022/05/16 02:35:38;;;;;;;10.55;4.22;;;;;;;14.24;74.67;68355.81;5004810;28;20041;-79
2022/05/16 02:38:04;;;;;;;14.60;4.78;;;;;;;;;;5012019;28;20034;-79
2022/05/16 02:40:31;;;;;;;10.35;4.55;;;;;;;14.18;74.94;68349.56;5010886;28;20041;-79
2022/05/16 02:42:57;;;;;;;13.40;4.60;;;;;;;14.16;75.03;68347.28;5008068;28;20044;-79
2022/05/16 02:45:24;;;;;;;11.20;4.32;;;;;;;14.15;75.13;68348.81;4994731;28;20054;-80
2022/05/16 02:47:49;;;;;;;10.60;4.47;;;;;;;;;;4989552;28;20146;-78
2022/05/16 02:50:15;;;;;;;11.52;4.95;;;;;;;14.14;75.06;68345.00;4995740;28;20156;-79
2022/05/16 02:52:41;;;;;;;10.82;4.32;;;;;;;14.08;75.26;68338.19;5010741;28;20052;-79
2022/05/16 02:55:07;;;;;;;11.90;4.80;;;;;;;;;;5005734;28;20029;-80
2022/05/16 02:57:32;;;;;;;11.80;4.28;;;;;;;14.13;75.02;68346.56;5003446;28;20160;-79
2022/05/16 02:59:58;;;;;;;8.70;4.35;;;;;;;;;;4989027;28;20042;-79
2022/05/16 03:02:24;;;;;;;10.45;4.70;;;;;;;14.10;75.10;68339.91;5008883;28;20046;-80
2022/05/16 03:04:50;;;;;;;9.15;4.47;;;;;;;14.10;75.53;68340.47;4990857;28;20046;-80
2022/05/16 03:07:16;;;;;;;10.35;4.40;;;;;;;14.11;75.53;68341.03;5018055;28;20037;-79
2022/05/16 03:09:41;;;;;;;10.68;4.57;;;;;;;14.11;75.20;68341.59;5038636;28;20042;-79
2022/05/16 03:12:07;;;;;;;12.27;5.03;;;;;;;14.10;75.25;68343.13;5001200;28;20042;-79
2022/05/16 03:14:33;;;;;;;12.60;4.50;;;;;;;14.11;74.89;68344.25;5005871;28;20050;-79
2022/05/16 03:16:59;;;;;;;12.13;4.22;;;;;;;14.09;75.45;68339.31;4998449;28;20537;-78
2022/05/16 03:19:24;;;;;;;8.75;4.20;;;;;;;;;;5018635;28;20132;-78
2022/05/16 03:21:49;;;;;;;11.10;4.67;;;;;;;;;;5009666;28;20124;-78
2022/05/16 03:24:15;;;;;;;11.90;4.37;;;;;;;14.08;75.30;68340.84;5006419;28;20369;-78
2022/05/16 03:26:40;;;;;;;9.93;4.28;;;;;;;14.06;75.36;68335.91;5002776;28;20293;-78
2022/05/16 03:29:06;;;;;;;11.07;4.60;;;;;;;14.06;75.43;68335.31;5002793;28;20435;-77
2022/05/16 03:31:33;;;;;;;9.82;4.72;;;;;;;14.03;75.96;68332.47;5009817;28;20038;-78
2022/05/16 03:33:58;;;;;;;12.43;4.35;;;;;;;;;;4996780;28;20031;-78
2022/05/16 03:36:23;;;;;;;10.83;4.90;;;;;;;13.97;75.69;68326.22;5008218;28;20038;-78
2022/05/16 03:41:32;;;;;;;12.80;4.30;;;;;;;13.93;75.67;68321.13;5021498;28;20065;-78
2022/05/16 03:43:58;;;;;;;13.73;5.28;;;;;;;13.90;76.10;68320.38;5000176;28;20046;-78
2022/05/16 03:46:24;;;;;;;13.40;5.70;;;;;;;13.88;76.63;68315.41;4997213;28;20037;-78
2022/05/16 03:48:49;;;;;;;10.73;5.00;;;;;;;13.84;76.52;68316.22;4997520;28;20106;-78
2022/05/16 03:51:15;;;;;;;12.93;4.78;;;;;;;13.85;77.11;68312.56;4994264;28;20613;-78
2022/05/16 03:53:49;;;;;;;11.05;4.63;;;;;;;13.83;76.55;68309.72;4997338;28;20438;-78
2022/05/16 03:56:22;;;;;;;12.77;5.45;;;;;;;13.81;77.14;68308.03;4999132;28;20125;-79
2022/05/16 03:58:48;;;;;;;11.98;5.07;;;;;;;13.81;77.20;68312.78;4991677;28;20030;-79
2022/05/16 04:01:14;;;;;;;11.07;5.45;;;;;;;13.75;77.18;68301.78;4999174;28;20077;-78
2022/05/16 04:03:40;;;;;;;9.18;4.93;;;;;;;13.73;77.68;68304.84;5003742;28;20037;-78
2022/05/16 04:06:06;;;;;;;12.95;5.22;;;;;;;13.80;77.19;68306.88;4989861;28;20030;-79
2022/05/16 04:08:32;;;;;;;14.00;5.20;;;;;;;13.82;77.45;68308.59;4998940;28;20133;-79
2022/05/16 04:10:59;;;;;;;11.30;5.90;;;;;;;13.78;78.24;68304.59;4997650;28;20058;-78
2022/05/16 04:13:26;;;;;;;9.65;4.95;;;;;;;13.77;77.69;68308.81;4995476;28;20038;-79
2022/05/16 04:15:51;;;;;;;12.57;5.05;;;;;;;13.80;77.66;68306.31;4995613;28;20034;-78
2022/05/16 04:18:17;;;;;;;14.02;4.90;;;;;;;13.85;77.07;68312.56;4995060;28;20084;-79
2022/05/16 04:20:42;;;;;;;15.38;6.15;;;;;;;13.87;77.53;68316.97;4989546;28;20053;-80
2022/05/16 04:23:09;;;;;;;8.70;4.90;;;;;;;13.92;77.14;68320.53;4993329;28;20049;-79
2022/05/16 04:25:34;;;;;;;11.45;5.32;;;;;;;13.98;77.38;68326.78;5001288;28;20054;-78
2022/05/16 04:28:00;;;;;;;12.90;4.80;;;;;;;14.01;77.09;68335.56;4992139;28;20045;-77
2022/05/16 04:30:26;;;;;;;11.80;4.78;;;;;;;14.05;76.97;68334.19;4996516;28;20046;-78
2022/05/16 04:32:51;;;;;;;11.00;5.22;;;;;;;14.07;76.63;68336.47;5003997;28;20049;-79
2022/05/16 04:35:17;;;;;;;11.45;5.05;;;;;;;14.16;77.22;68349.97;5002897;28;21322;-78
2022/05/16 04:37:42;;;;;;;13.20;5.43;;;;;;;14.22;76.57;68353.53;4993202;28;20048;-78
2022/05/16 04:40:10;;;;;;;12.85;4.57;;;;;;;14.29;76.38;68363.63;5001190;28;20053;-78
2022/05/16 04:42:42;;;;;;;10.38;5.15;;;;;;;14.33;76.79;68365.50;5005632;28;20148;-78
2022/05/16 04:45:22;;;;;;;12.77;4.68;;;;;;;14.40;76.29;68368.66;5011297;28;20101;-78
2022/05/16 04:47:50;;;;;;;12.73;5.07;;;;;;;14.44;76.41;68378.59;5006659;28;20053;-79
2022/05/16 04:50:17;;;;;;;10.20;5.22;;;;;;;;;;5029143;28;20034;-78
2022/05/16 04:52:42;;;;;;;11.35;5.05;;;;;;;14.54;76.92;68394.22;5020743;28;20068;-78
2022/05/16 04:55:08;;;;;;;12.88;5.35;;;;;;;14.58;76.35;68393.41;5006715;28;20149;-78
2022/05/16 04:57:34;;;;;;;17.00;5.30;;;;;;;14.67;76.37;68403.66;5010035;28;20096;-77
2022/05/16 04:59:59;;;;;;;13.40;5.07;;;;;;;14.72;76.14;68414.13;5010668;28;20502;-77
2022/05/16 05:02:25;;;;;;;8.70;5.00;;;;;;;14.79;75.79;68416.75;5002357;28;20050;-77
2022/05/16 05:04:51;;;;;;;11.77;4.68;;;;;;;14.81;75.81;68419.59;4991234;28;20046;-76
2022/05/16 05:07:16;;;;;;;11.35;4.85;;;;;;;14.83;75.71;68421.31;5005354;28;20069;-76
2022/05/16 05:15:12;;;;;;;12.25;4.80;;;;;;;14.88;74.82;68427.56;5006380;28;20045;-76
2022/05/16 05:17:38;;;;;;;12.05;4.93;;;;;;;14.90;75.01;68429.25;4987642;28;20082;-76
2022/05/16 05:20:07;;;;;;;10.35;4.70;;;;;;;14.92;75.32;68430.97;4988502;28;20133;-76
2022/05/16 05:22:33;;;;;;;11.38;4.85;;;;;;;14.92;75.52;68430.97;5001770;28;20049;-76
2022/05/16 05:24:58;;;;;;;12.90;4.35;;;;;;;;;;5000502;28;20034;-76
2022/05/16 05:27:23;;;;;;;13.30;4.50;;;;;;;;;;4996088;28;20042;-76
2022/05/16 05:29:51;;;;;;;12.50;4.70;;;;;;;15.17;74.55;68458.88;4993935;28;20818;-77
2022/05/16 05:32:16;;;;;;;12.40;4.28;;;;;;;;;;5001758;28;20277;-76
2022/05/16 05:34:41;;;;;;;11.37;4.90;;;;;;;15.40;73.88;68484.53;4988841;28;20557;-77
2022/05/16 05:37:07;;;;;;;13.10;4.65;;;;;;;15.48;74.34;68496.88;5000206;28;20802;-76
2022/05/16 05:39:34;;;;;;;12.55;4.20;;;;;;;15.56;73.89;68497.38;5004746;28;20041;-76
2022/05/16 05:41:59;;;;;;;13.23;4.78;;;;;;;15.69;72.90;68519.69;5006575;28;20053;-76
2022/05/16 05:44:25;;;;;;;12.35;4.57;;;;;;;15.80;73.08;68529.53;5007000;28;20041;-78
2022/05/16 05:46:50;;;;;;;15.32;4.47;;;;;;;;;;5010768;28;20033;-78
2022/05/16 05:49:16;;;;;;;12.27;4.60;;;;;;;16.04;71.65;68550.38;4995329;28;20045;-77
2022/05/16 05:51:41;;;;;;;20.35;4.95;;;;;;;16.16;72.34;68569.44;5008882;28;20118;-77
2022/05/16 05:54:07;;;;;;;12.98;4.97;;;;;;;;;;5006613;28;20042;-78
2022/05/16 05:56:33;;;;;;;11.98;4.47;;;;;;;16.36;71.17;68591.66;5008059;28;20060;-77
2022/05/16 05:58:59;;;;;;;11.88;4.55;;;;;;;16.46;70.47;68606.31;5007446;28;20042;-77
2022/05/16 06:01:25;;;;;;;13.43;3.88;;;;;;;16.58;69.29;68616.19;4999994;28;20514;-77
2022/05/16 06:03:51;;;;;;;8.20;3.60;;;;;;;16.70;67.93;68635.81;4996249;28;20044;-78
2022/05/16 06:06:17;;;;;;;10.93;4.20;;;;;;;16.81;68.00;68637.06;5008967;28;20457;-77
2022/05/16 06:08:42;;;;;;;10.80;3.97;;;;;;;16.95;67.59;68657.25;4988378;28;20046;-77
2022/05/16 06:11:08;;;;;;;12.38;3.65;;;;;;;17.03;67.03;68666.38;5002078;28;20113;-77
2022/05/16 06:13:33;;;;;;;10.70;3.13;;;;;;;;;;5014369;28;20038;-78
2022/05/16 06:15:59;;;;;;;9.85;3.60;;;;;;;17.24;65.79;68692.47;5004020;28;20045;-77
2022/05/16 06:18:24;;;;;;;12.63;3.90;;;;;;;17.32;65.47;68699.47;4998943;28;20128;-76
2022/05/16 06:20:49;;;;;;;11.15;3.50;;;;;;;;;;5002899;28;20050;-76
2022/05/16 06:23:15;;;;;;;10.18;3.63;;;;;;;17.55;65.33;68724.56;4999974;28;20042;-76
2022/05/16 06:25:42;;;;;;;9.20;3.78;;;;;;;17.69;64.68;68742.66;4988777;28;20080;-76
2022/05/16 06:28:17;;;;;;;9.95;4.00;;;;;;;17.85;64.36;68752.31;4997250;28;20038;-77
2022/05/16 06:30:45;;;;;;;8.48;3.35;;;;;;;18.02;64.31;68771.69;4999710;28;20089;-76
2022/05/16 06:33:11;;;;;;;8.35;3.30;;;;;;;;;;5000220;28;20042;-76
2022/05/16 06:35:37;;;;;;;9.95;3.80;;;;;;;18.27;62.88;68805.63;5006908;28;20045;-76
2022/05/16 06:38:04;;;;;;;8.55;3.90;;;;;;;;;;4991565;28;20077;-77
2022/05/16 06:40:29;;;;;;;13.68;4.15;;;;;;;18.36;62.24;68814.78;4990850;28;20060;-76
2022/05/16 06:42:54;;;;;;;11.98;3.53;;;;;;;;;;5002810;28;20045;-77
2022/05/16 06:45:20;;;;;;;8.25;3.75;;;;;;;18.59;61.21;68835.63;4987376;28;20046;-77
2022/05/16 06:47:45;;;;;;;10.63;3.92;;;;;;;18.68;61.60;68851.31;5007124;28;20042;-77
2022/05/16 06:50:10;;;;;;;8.98;3.55;;;;;;;;;;5006906;28;20128;-77
2022/05/16 06:52:36;;;;;;;11.57;3.22;;;;;;;18.89;60.71;68869.34;5002547;28;20077;-77
2022/05/16 06:55:01;;;;;;;8.65;3.42;;;;;;;19.02;60.09;68888.44;5004428;28;20084;-77
2022/05/16 06:57:27;;;;;;;8.20;3.33;;;;;;;;;;5006084;28;20072;-77
2022/05/16 06:59:53;;;;;;;10.48;3.03;;;;;;;19.27;60.04;68917.00;5005713;28;20132;-77
2022/05/16 07:02:18;;;;;;;10.93;3.25;;;;;;;19.46;58.93;68938.16;5006728;28;20439;-77
2022/05/16 07:04:43;;;;;;;12.70;3.50;;;;;;;19.65;57.97;68958.72;5002335;28;20124;-77
2022/05/16 07:07:09;;;;;;;8.35;3.08;;;;;;;19.85;57.06;68976.19;4993666;28;20105;-77
2022/05/16 07:09:41;;;;;;;8.95;3.70;;;;;;;19.97;56.15;68989.91;4996515;28;20057;-77
2022/05/16 07:12:08;;;;;;;7.97;3.15;;;;;;;20.02;56.24;68995.06;5006391;28;20046;-77
2022/05/16 07:14:34;;;;;;;9.73;3.20;;;;;;;;;;5004403;28;20564;-77
2022/05/16 07:17:00;;;;;;;9.55;3.22;;;;;;;;;;5006750;28;20125;-77
2022/05/16 07:19:29;;;;;;;9.02;3.42;;;;;;;20.15;56.34;69014.75;5001707;28;20494;-77
2022/05/16 07:21:54;;;;;;;7.47;3.17;;;;;;;20.17;56.55;69012.22;5017174;28;20042;-77
2022/05/16 07:24:20;;;;;;;9.50;3.35;;;;;;;20.16;56.52;69010.50;5026241;28;20150;-77
2022/05/16 07:29:29;;;;;;;10.75;3.67;;;;;;;;;;5005176;28;20049;-76
2022/05/16 07:31:54;;;;;;;9.53;3.20;;;;;;;20.25;56.80;69026.19;4985730;28;20050;-76
2022/05/16 07:34:20;;;;;;;8.48;3.65;;;;;;;;;;4986216;28;20039;-76
2022/05/16 07:36:45;;;;;;;8.30;2.97;;;;;;;;;;4988102;28;20057;-77
2022/05/16 07:39:10;;;;;;;9.82;3.65;;;;;;;20.35;55.96;69031.66;4988207;28;20124;-76
2022/05/16 07:41:36;;;;;;;15.50;3.80;;;;;;;;;;4991180;28;20043;-76
2022/05/16 07:44:02;;;;;;;8.27;3.50;;;;;;;20.42;56.64;69039.66;4987175;28;20139;-76
2022/05/16 07:46:27;;;;;;;9.80;3.55;;;;;;;;;;4993736;28;20055;-76
2022/05/16 07:48:52;;;;;;;10.43;3.20;;;;;;;20.47;56.13;69045.38;5001266;28;20490;-76
2022/05/16 07:51:18;;;;;;;10.95;4.03;;;;;;;20.46;55.04;69044.22;5000815;28;20037;-76
2022/05/16 07:53:46;;;;;;;8.23;3.40;;;;;;;20.44;55.48;69047.91;5007167;28;20533;-76
2022/05/16 07:56:12;;;;;;;11.30;3.33;;;;;;;20.50;55.83;69054.19;5000144;28;20046;-76
2022/05/16 07:58:37;;;;;;;8.80;4.05;;;;;;;20.54;55.67;69052.81;5000372;28;20046;-76
2022/05/16 08:01:03;;;;;;;9.15;3.28;;;;;;;;;;5003255;28;20042;-77
2022/05/16 08:03:30;;;;;;;10.98;3.25;;;;;;;20.68;55.01;69074.81;5005219;28;20041;-76
2022/05/16 08:05:55;;;;;;;8.23;3.20;;;;;;;20.88;53.96;69096.53;5006539;28;20156;-77
2022/05/16 08:11:06;;;;;;;9.32;3.20;;;;;;;20.92;51.81;69095.72;4999257;28;20041;-77
2022/05/16 08:13:32;;;;;;;9.07;3.28;;;;;;;20.95;52.78;69099.16;5002650;28;20056;-77
2022/05/16 08:16:00;;;;;;;9.05;3.33;;;;;;;20.99;52.05;69108.56;5006838;28;20491;-77
2022/05/16 08:18:26;;;;;;;9.48;3.20;;;;;;;20.99;52.59;69103.16;4998898;28;20034;-77
2022/05/16 08:20:51;;;;;;;7.70;3.42;;;;;;;;;;4991375;28;20112;-76
2022/05/16 08:23:21;;;;;;;8.00;3.50;;;;;;;21.05;52.35;69110.00;5000944;28;20102;-75
2022/05/16 08:25:47;;;;;;;7.18;3.28;;;;;;;21.11;53.29;69117.44;5007292;28;20041;-76
2022/05/16 08:28:13;;;;;;;8.60;3.13;;;;;;;21.21;53.26;69122.34;4996044;28;20045;-76
2022/05/16 08:30:39;;;;;;;7.88;3.28;;;;;;;21.25;52.67;69132.31;5005643;28;20046;-76
2022/05/16 08:33:05;;;;;;;10.45;4.00;;;;;;;21.22;52.38;69134.31;5001967;28;20040;-76
2022/05/16 08:35:32;;;;;;;10.30;3.58;;;;;;;21.23;52.66;69136.00;5002542;28;20125;-76
2022/05/16 08:41:02;;;;;;;8.73;3.65;;;;;;;21.24;53.42;69131.19;5014122;28;20529;-76
2022/05/16 08:43:49;;;;;;;12.48;4.50;;;;;;;21.37;53.08;69143.34;5004732;28;20644;-76
2022/05/16 08:46:26;;;;;;;9.68;4.10;;;;;;;21.56;53.23;69172.66;5003152;28;20049;-76
2022/05/16 08:48:55;;;;;;;11.30;3.97;;;;;;;;;;5003627;28;20041;-76
2022/05/16 08:51:25;;;;;;;12.15;3.92;;;;;;;;;;4996913;28;20136;-76
2022/05/16 08:53:58;;;;;;;12.93;4.85;;;;;;;21.93;51.96;69208.44;5004296;28;20515;-77
2022/05/16 08:56:28;;;;;;;10.90;3.78;;;;;;;22.08;52.33;69225.63;5002824;28;20495;-76
2022/05/16 08:59:04;;;;;;;9.38;3.50;;;;;;;22.14;51.96;69231.91;5003169;28;20042;-76
2022/05/16 09:01:38;;;;;;;11.55;4.07;;;;;;;22.22;51.04;69241.66;4999602;28;20046;-76
2022/05/16 09:04:16;;;;;;;9.70;3.17;;;;;;;22.32;50.42;69251.97;5003154;28;20407;-76
2022/05/16 09:06:44;;;;;;;10.32;3.53;;;;;;;;;;5003373;28;20078;-77
2022/05/16 09:09:17;;;;;;;11.20;3.50;;;;;;;22.46;50.52;69262.56;5003650;28;20054;-76
2022/05/16 09:12:02;;;;;;;12.45;3.65;;;;;;;;;;4989750;28;20046;-76
2022/05/16 09:14:35;;;;;;;10.40;3.30;;;;;;;;;;4989248;28;20050;-76
2022/05/16 09:17:04;;;;;;;10.48;3.58;;;;;;;22.87;50.13;69311.09;5007540;28;20048;-78
2022/05/16 09:19:48;;;;;;;;;;;;;;;22.86;51.04;69310.53;5005579;28;20046;-77
2022/05/16 09:22:27;;;;;;;9.05;3.28;;;;;;;22.63;50.77;69286.91;5002755;28;20012;-77
2022/05/16 09:25:13;;;;;;;7.38;3.60;;;;;;;22.78;50.83;69300.78;4995363;28;20045;-77
2022/05/16 09:30:28;;;;;;;8.68;3.45;;;;;;;22.90;51.37;69317.25;5005381;28;20462;-77
2022/05/16 09:33:11;;;;;;;7.07;3.10;;;;;;;23.00;50.93;69333.59;5008448;28;20038;-77
2022/05/16 09:35:36;;;;;;;11.55;3.88;;;;;;;;;;4984437;28;20612;-76
2022/05/16 09:38:02;;;;;;;10.23;3.33;;;;;;;22.98;49.92;69326.44;5002596;28;20121;-77
2022/05/16 09:40:35;;;;;;;8.93;3.50;;;;;;;22.92;51.33;69320.09;4988924;28;20042;-76
2022/05/16 09:43:04;;;;;;;9.63;3.15;;;;;;;;;;5008155;28;20042;-77
2022/05/16 09:45:30;;;;;;;11.25;3.80;;;;;;;;;;5005787;28;20426;-77
2022/05/16 09:47:55;;;;;;;23.40;4.15;;;;;;;22.91;51.25;69323.81;4992613;28;20038;-77
2022/05/16 09:50:28;;;;;;;9.35;3.05;;;;;;;22.91;50.76;69312.97;4986378;28;20523;-77
2022/05/16 09:53:02;;;;;;;11.25;3.13;;;;;;;22.90;50.71;69317.25;5005363;28;20037;-76
2022/05/16 09:55:28;;;;;;;9.80;3.40;;;;;;;22.88;51.15;69312.25;5006001;28;20438;-77
2022/05/16 09:57:57;;;;;;;9.25;3.33;;;;;;;22.89;51.34;69310.69;5002832;28;20038;-77
2022/05/16 10:00:31;;;;;;;9.27;3.05;;;;;;;;;;5023074;28;20034;-77
2022/05/16 10:03:20;;;;;;;12.15;3.28;;;;;;;22.93;52.54;69320.69;5023783;28;20135;-77
2022/05/16 10:05:47;;;;;;;8.77;3.10;;;;;;;22.83;53.35;69309.22;5022557;28;20037;-77
2022/05/16 10:08:17;;;;;;;8.93;3.20;;;;;;;;;;5010526;28;20132;-77
2022/05/16 10:10:45;;;;;;;8.07;2.88;;;;;;;22.74;53.49;69305.50;5005151;28;20109;-77
2022/05/16 10:13:12;;;;;;;10.52;3.25;;;;;;;22.77;53.99;69302.94;4995733;28;20042;-77
2022/05/16 10:15:40;;;;;;;11.50;3.35;;;;;;;22.85;54.38;69308.81;4989028;28;20046;-77
2022/05/16 10:18:12;;;;;;;8.57;3.40;;;;;;;22.86;53.93;69313.25;4988608;28;20121;-77
2022/05/16 10:20:45;;;;;;;14.68;4.10;;;;;;;;;;4989685;28;20097;-77
2022/05/16 10:23:17;;;;;;;14.23;3.35;;;;;;;22.75;54.29;69301.19;5000312;28;20033;-77
2022/05/16 10:25:48;;;;;;;18.23;4.05;;;;;;;22.77;54.92;69302.38;5007025;28;20499;-76
2022/05/16 10:28:24;;;;;;;11.52;3.60;;;;;;;22.81;55.20;69306.94;4999612;28;20045;-77
2022/05/16 10:33:35;;;;;;;11.25;3.85;;;;;;;;;;5021450;28;20544;-76
2022/05/16 10:36:13;;;;;;;8.23;3.72;;;;;;;22.82;55.25;69308.09;5006560;28;20038;-76
2022/05/16 10:38:52;;;;;;;;;;;;;;;;;;;;;
2022/05/16 10:41:23;;;;;;;9.65;3.72;;;;;;;22.75;54.56;69300.63;4993578;28;20052;-76
2022/05/16 10:44:08;;;;;;;6.05;3.15;;;;;;;;;;5007397;28;20116;-76
2022/05/16 10:46:35;;;;;;;7.47;3.50;;;;;;;;;;5004546;28;20069;-76
2022/05/16 10:49:09;;;;;;;11.30;3.50;;;;;;;22.82;54.24;69305.94;5006733;28;20534;-76
2022/05/16 10:52:09;;;;;;;13.35;3.60;;;;;;;22.80;55.64;69300.94;4999873;28;20442;-76
2022/05/16 10:54:35;;;;;;;8.68;3.60;;;;;;;22.74;55.66;69294.06;4984418;28;20137;-76
2022/05/16 10:57:07;;;;;;;8.35;3.95;;;;;;;;;;5001954;28;20512;-76
2022/05/16 10:59:54;;;;;;;8.48;3.90;;;;;;;22.92;55.57;69320.09;5005045;28;20133;-77
2022/05/16 11:02:36;;;;;;;7.95;3.38;;;;;;;23.15;54.80;69351.34;5005354;28;20679;-76
2022/05/16 11:05:20;;;;;;;8.55;3.30;;;;;;;23.31;54.39;69363.09;5006913;28;20041;-76
2022/05/16 11:07:55;;;;;;;8.35;3.25;;;;;;;23.38;54.00;69371.13;4998004;28;20034;-77
2022/05/16 11:10:45;;;;;;;6.25;3.05;;;;;;;23.46;54.15;69379.72;5000881;28;20033;-77
2022/05/16 11:13:28;;;;;;;8.13;3.80;;;;;;;23.40;53.96;69373.41;4996236;28;20072;-77
2022/05/16 11:15:58;;;;;;;10.68;3.50;;;;;;;23.36;54.67;69374.84;4992684;28;20698;-77
2022/05/16 11:18:45;;;;;;;7.05;3.17;;;;;;;23.43;53.28;69371.41;5002731;28;20054;-77
2022/05/16 11:21:28;;;;;;;10.40;3.50;;;;;;;23.50;54.15;69390.28;5002049;28;20034;-77
2022/05/16 11:24:05;;;;;;;14.23;3.28;;;;;;;23.48;53.90;69388.03;4996766;28;20061;-77
2022/05/16 11:26:39;;;;;;;10.05;3.80;;;;;;;23.46;52.85;69377.56;4983728;28;20049;-77
2022/05/16 11:29:17;;;;;;;10.57;3.65;;;;;;;;;;4984505;28;20058;-77
2022/05/16 11:31:58;;;;;;;7.20;3.28;;;;;;;23.41;53.43;69374.56;5002706;28;20133;-78
2022/05/16 11:34:43;;;;;;;11.82;3.97;;;;;;;23.42;54.49;69375.72;4985655;28;20104;-78
2022/05/16 11:37:39;;;;;;;10.35;3.80;;;;;;;23.53;53.66;69393.72;4983865;28;20042;-77
2022/05/16 11:40:10;;;;;;;13.30;4.07;;;;;;;23.55;54.04;69387.88;5007639;28;20037;-77
2022/05/16 11:42:41;;;;;;;9.75;3.72;;;;;;;23.71;53.26;69408.41;4999073;28;20057;-76
2022/05/16 11:45:31;;;;;;;8.60;3.35;;;;;;;23.86;52.83;69425.56;5003416;28;20038;-76
2022/05/16 11:48:19;;;;;;;12.27;4.03;;;;;;;23.96;52.70;69436.47;4999642;28;20045;-77
2022/05/16 11:51:11;;;;;;;9.43;3.45;;;;;;;23.92;53.25;69428.59;4983589;28;20571;-76
2022/05/16 11:53:48;;;;;;;7.47;3.60;;;;;;;23.94;52.02;69434.19;5016227;28;20106;-77
2022/05/16 12:02:38;;;;;;;9.30;4.70;;;;;;;23.73;54.22;69410.66;4996681;28;20056;-77
2022/05/16 12:05:30;;;;;;;10.43;3.75;;;;;;;23.72;53.82;69408.97;5001597;28;20038;-77
2022/05/16 12:08:23;;;;;;;8.40;3.22;;;;;;;23.55;54.07;69387.88;4984777;28;20038;-76
2022/05/16 12:11:04;;;;;;;8.82;3.67;;;;;;;23.48;54.44;69382.59;5015062;28;20052;-76
2022/05/16 12:13:33;;;;;;;13.85;3.33;;;;;;;23.46;54.62;69374.84;5002447;28;20180;-76
2022/05/16 12:16:13;;;;;;;10.43;3.75;;;;;;;;;;4989719;28;20073;-76
2022/05/16 12:19:08;;;;;;;14.70;4.20;;;;;;;23.47;54.96;69372.69;5015305;28;20511;-75
2022/05/16 12:21:35;;;;;;;10.02;3.92;;;;;;;23.56;55.67;69389.03;5001011;28;20049;-76
2022/05/16 12:24:25;;;;;;;8.38;3.80;;;;;;;23.86;54.58;69425.00;5001401;28;20149;-76
2022/05/16 12:27:07;;;;;;;5.68;3.33;;;;;;;24.07;54.36;69446.34;4962863;28;20652;-77
2022/05/16 12:29:45;;;;;;;7.60;3.58;;;;;;;24.13;54.21;69455.38;4996191;28;20050;-76
2022/05/16 12:32:20;;;;;;;7.70;3.43;;;;;;;;;;5004709;28;20400;-76
2022/05/16 12:34:48;;;;;;;7.90;3.20;;;;;;;24.15;53.30;69457.69;4998817;28;20282;-76
2022/05/16 12:37:16;;;;;;;8.60;3.40;;;;;;;24.35;50.84;69479.47;4996935;28;20046;-76
2022/05/16 12:40:22;;;;;;;7.40;3.30;;;;;;;24.27;51.72;69465.41;4997044;28;20088;-76
2022/05/16 12:43:26;;;;;;;11.73;4.50;;;;;;;24.39;52.69;69484.03;5006013;28;20753;-77
2022/05/16 12:46:28;;;;;;;12.43;4.00;;;;;;;24.22;54.00;69465.13;4967820;28;20129;-75
2022/05/16 12:49:39;;;;;;;9.23;3.47;;;;;;;24.03;51.90;69449.38;5014150;28;20042;-76